Time;durP1;ratioP1;P1;durP2;ratioP2;P2;SDS_P1;SDS_P2;PMS_P1;PMS_P2;Temp;Humidity;BMP_temperature;BMP_pressure;BME280_temperature;BME280_humidity;BME280_pressure;Samples;Min_cycle;Max_cycle;Signal;HPM_P1;HPM_P2
2021/06/30 00:01:18;;;;;;;7.07;4.97;;;;;;;26.86;53.07;100570.58;127366;1092;64175;-84
2021/06/30 00:03:48;;;;;;;6.13;5.00;;;;;;;26.86;53.08;100572.45;127675;1092;64258;-84
2021/06/30 00:06:35;;;;;;;6.17;5.07;;;;;;;26.87;53.16;100563.30;127671;1090;64292;-84
2021/06/30 00:09:22;;;;;;;7.40;4.80;;;;;;;26.85;53.08;100568.88;127746;1090;64286;-84
2021/06/30 00:12:25;;;;;;;7.07;5.33;;;;;;;26.85;53.07;100558.04;127691;1093;64282;-84
2021/06/30 00:15:51;;;;;;;;;;;;;;;;;;;;;
2021/06/30 00:18:53;;;;;;;;;;;;;;;;;;;;;
2021/06/30 00:21:33;;;;;;;5.50;4.77;;;;;;;26.85;53.14;100574.29;127709;1092;64403;-83
2021/06/30 00:24:36;;;;;;;6.00;4.80;;;;;;;26.85;53.39;100570.74;127702;1093;64185;-84
2021/06/30 00:27:29;;;;;;;7.50;5.25;;;;;;;26.85;53.08;100571.58;127708;1093;64328;-85
2021/06/30 00:30:17;;;;;;;6.00;4.90;;;;;;;26.86;53.22;100575.16;127742;1093;64235;-84
2021/06/30 00:33:01;;;;;;;;;;;;;;;;;;;;;
2021/06/30 00:36:08;;;;;;;;;;;;;;;;;;;;;
2021/06/30 00:39:01;;;;;;;6.37;4.83;;;;;;;26.85;53.28;100568.03;127689;1092;64179;-84
2021/06/30 00:41:58;;;;;;;5.83;4.80;;;;;;;26.85;53.33;100571.58;127720;1093;64139;-84
2021/06/30 00:44:48;;;;;;;5.85;4.75;;;;;;;26.85;53.45;100576.16;127707;1093;63980;-84
2021/06/30 00:47:47;;;;;;;5.80;4.97;;;;;;;26.85;53.33;100573.45;127696;1093;64143;-84
2021/06/30 00:50:36;;;;;;;6.87;4.63;;;;;;;26.84;53.55;100566.32;127712;1090;64137;-85
2021/06/30 00:53:57;;;;;;;6.47;4.97;;;;;;;26.84;53.58;100579.86;127746;1090;64153;-84
2021/06/30 00:57:14;;;;;;;5.65;5.05;;;;;;;26.83;53.47;100575.44;127760;1089;64275;-84
2021/06/30 01:00:03;;;;;;;5.60;4.90;;;;;;;26.84;53.59;100583.41;127710;1090;64217;-84
2021/06/30 01:02:44;;;;;;;8.27;5.10;;;;;;;26.85;53.50;100579.70;127718;1089;64438;-84
2021/06/30 01:05:35;;;;;;;;;;;;;;;;;;;;;
2021/06/30 01:08:27;;;;;;;6.10;4.70;;;;;;;26.85;53.59;100584.28;127771;1088;64275;-85
2021/06/30 01:11:25;;;;;;;5.47;4.77;;;;;;;26.85;53.75;100581.58;127736;1090;64150;-83
2021/06/30 01:14:34;;;;;;;5.93;4.63;;;;;;;26.85;53.58;100587.83;127415;1090;64109;-85
2021/06/30 01:17:50;;;;;;;5.20;4.40;;;;;;;26.86;53.42;100573.29;127778;1090;64240;-84
2021/06/30 01:20:25;;;;;;;5.67;4.73;;;;;;;26.90;54.05;100580.10;127689;1093;64112;-84
2021/06/30 01:23:32;;;;;;;6.80;4.80;;;;;;;26.93;53.83;100587.91;127182;1096;64160;-87
2021/06/30 01:26:15;;;;;;;5.97;4.83;;;;;;;26.98;53.84;100589.30;127179;1096;64304;-84
2021/06/30 01:29:04;;;;;;;;;;;;;;;;;;;;;
2021/06/30 01:31:57;;;;;;;7.10;4.80;;;;;;;27.02;53.72;100596.11;127172;1095;64153;-84
2021/06/30 01:34:49;;;;;;;5.13;4.53;;;;;;;27.02;53.61;100598.82;127174;1095;64179;-84
2021/06/30 01:37:29;;;;;;;5.50;4.57;;;;;;;27.03;53.57;100597.83;127172;1096;64195;-84
2021/06/30 01:40:06;;;;;;;6.57;5.23;;;;;;;27.03;53.52;100605.95;127287;1096;64338;-84
2021/06/30 01:42:54;;;;;;;5.73;4.80;;;;;;;27.02;53.57;100606.95;127228;1096;64045;-84
2021/06/30 01:45:27;;;;;;;5.90;5.03;;;;;;;27.01;53.51;100602.56;127179;1096;64208;-84
2021/06/30 01:48:28;;;;;;;;;;;;;;;;;;;;;
2021/06/30 01:51:15;;;;;;;7.93;5.40;;;;;;;26.99;53.51;100607.27;127217;1096;64118;-84
2021/06/30 01:54:03;;;;;;;5.67;4.73;;;;;;;26.98;53.48;100608.27;127281;1096;64119;-84
2021/06/30 01:56:35;;;;;;;6.57;4.83;;;;;;;26.97;53.60;100606.59;127166;1093;64288;-84
2021/06/30 01:59:42;;;;;;;6.47;5.30;;;;;;;26.95;53.59;100604.00;127262;1093;64361;-84
2021/06/30 02:02:38;;;;;;;;;;;;;;;;;;;;;
2021/06/30 02:05:39;;;;;;;6.23;4.70;;;;;;;26.93;53.52;100603.32;127717;1090;64141;-84
2021/06/30 02:08:36;;;;;;;5.93;4.73;;;;;;;26.92;53.56;100609.73;127748;1090;64135;-85
2021/06/30 02:11:15;;;;;;;;;;;;;;;;;;;;;
2021/06/30 02:14:06;;;;;;;6.30;5.20;;;;;;;26.88;53.68;100606.47;127713;1090;64102;-84
2021/06/30 02:16:39;;;;;;;5.37;4.83;;;;;;;26.88;53.64;100614.59;127758;1089;64134;-83
2021/06/30 02:19:49;;;;;;;5.83;5.00;;;;;;;26.88;53.63;100606.47;127701;1090;64192;-84
2021/06/30 02:23:01;;;;;;;;;;;;;;;;;;;;;
2021/06/30 02:25:55;;;;;;;6.90;5.10;;;;;;;26.87;53.80;100625.59;127790;1090;64102;-84
2021/06/30 02:28:42;;;;;;;6.47;4.73;;;;;;;26.86;53.96;100621.20;127739;1089;64281;-85
2021/06/30 02:31:25;;;;;;;;;;;;;;;;;;;;;
2021/06/30 02:34:10;;;;;;;6.97;4.70;;;;;;;26.86;53.98;100613.91;127767;1088;64121;-84
2021/06/30 02:36:48;;;;;;;5.63;4.70;;;;;;;26.88;53.89;100611.05;127846;1087;64268;-84
2021/06/30 02:39:36;;;;;;;;;;;;;;;;;;;;;
2021/06/30 02:42:02;;;;;;;5.98;4.88;;;;;;;26.92;54.12;100621.44;127902;1087;64099;-85
2021/06/30 02:44:49;;;;;;;6.47;5.07;;;;;;;26.95;53.98;100619.41;127902;1087;64172;-85
2021/06/30 02:47:53;;;;;;;5.20;4.60;;;;;;;26.98;54.09;100610.97;128098;1087;63948;-83
2021/06/30 02:50:39;;;;;;;5.63;4.40;;;;;;;26.99;54.03;100615.39;127908;1087;64165;-84
2021/06/30 02:53:16;;;;;;;6.13;4.70;;;;;;;27.00;53.99;100614.39;127920;1088;64028;-84
2021/06/30 02:56:21;;;;;;;5.90;4.97;;;;;;;27.00;53.93;100614.39;127904;1087;64171;-84
2021/06/30 02:58:49;;;;;;;7.53;5.30;;;;;;;27.01;53.99;100629.65;127970;1087;64137;-84
2021/06/30 03:01:30;;;;;;;6.30;4.87;;;;;;;27.00;53.77;100625.23;127937;1087;64146;-85
2021/06/30 03:04:09;;;;;;;5.70;4.90;;;;;;;26.99;53.85;100627.10;127895;1090;64688;-84
2021/06/30 03:06:43;;;;;;;7.57;5.37;;;;;;;26.98;53.83;100629.94;127909;1086;64300;-84
2021/06/30 03:09:30;;;;;;;6.50;5.27;;;;;;;26.98;53.90;100632.64;127913;1087;64079;-84
2021/06/30 03:12:05;;;;;;;6.70;4.90;;;;;;;26.96;54.07;100624.67;127908;1086;64106;-83
2021/06/30 03:14:57;;;;;;;6.15;5.20;;;;;;;26.95;54.02;100622.96;127929;1087;64131;-84
2021/06/30 03:17:34;;;;;;;6.33;5.13;;;;;;;26.95;54.16;100627.55;127921;1087;64141;-84
2021/06/30 03:20:09;;;;;;;6.27;5.37;;;;;;;26.95;54.06;100622.13;127933;1087;64470;-84
2021/06/30 03:22:49;;;;;;;6.00;4.97;;;;;;;26.92;54.09;100610.61;127921;1087;64140;-84
2021/06/30 03:25:29;;;;;;;7.07;5.53;;;;;;;26.92;53.75;100616.02;127922;1087;64285;-84
2021/06/30 03:28:19;;;;;;;6.00;5.00;;;;;;;26.91;54.12;100614.31;128167;1085;65337;-84
2021/06/30 03:30:50;;;;;;;6.57;5.47;;;;;;;26.91;54.08;100613.44;128397;1087;64192;-84
2021/06/30 03:33:40;;;;;;;;;;;;;;;;;;;;;
2021/06/30 03:37:02;;;;;;;6.40;5.20;;;;;;;26.89;54.23;100613.60;128365;1087;64135;-84
2021/06/30 03:39:52;;;;;;;6.07;5.00;;;;;;;26.88;54.20;100605.63;128381;1087;64399;-84
2021/06/30 03:42:28;;;;;;;6.80;5.40;;;;;;;26.87;54.08;100615.63;128415;1086;63958;-84
2021/06/30 03:45:44;;;;;;;6.60;5.27;;;;;;;26.88;54.13;100619.17;128364;1086;64184;-84
2021/06/30 03:48:37;;;;;;;5.17;4.63;;;;;;;26.90;54.46;100622.59;127901;1087;64272;-85
2021/06/30 03:51:46;;;;;;;6.57;4.83;;;;;;;26.93;54.52;100622.28;127913;1086;64295;-83
2021/06/30 03:54:53;;;;;;;;;;;;;;;;;;;;;
2021/06/30 03:57:55;;;;;;;9.50;5.70;;;;;;;27.00;54.65;100617.10;127944;1087;64075;-84
2021/06/30 04:00:46;;;;;;;;;;;;;;;;;;;;;
2021/06/30 04:03:54;;;;;;;8.50;6.37;;;;;;;27.01;54.07;100611.53;127923;1085;64374;-83
2021/06/30 04:06:39;;;;;;;14.20;7.20;;;;;;;27.03;54.02;100617.66;127941;1087;64370;-84
2021/06/30 04:09:50;;;;;;;17.57;7.57;;;;;;;27.02;54.12;100615.95;127911;1087;62928;-84
2021/06/30 04:12:45;;;;;;;17.50;7.43;;;;;;;27.02;54.16;100618.66;127920;1087;64156;-84
2021/06/30 04:15:52;;;;;;;17.30;7.43;;;;;;;27.02;53.86;100615.08;127875;1087;64628;-85
2021/06/30 04:18:42;;;;;;;12.87;7.50;;;;;;;27.01;53.88;100607.98;127926;1087;64141;-84
2021/06/30 04:21:30;;;;;;;14.43;7.80;;;;;;;27.00;54.13;100600.85;127923;1087;64330;-84
2021/06/30 04:24:17;;;;;;;13.77;8.20;;;;;;;27.00;53.79;100608.98;127915;1087;64160;-83
2021/06/30 04:27:14;;;;;;;12.13;8.20;;;;;;;26.99;53.77;100593.72;128350;1086;64153;-84
2021/06/30 04:30:10;;;;;;;14.47;7.60;;;;;;;26.98;53.89;100602.84;128360;1087;64291;-84
2021/06/30 04:33:30;;;;;;;;;;;;;;;;;;;;;
2021/06/30 04:36:32;;;;;;;15.07;8.53;;;;;;;26.96;53.65;100605.72;128363;1087;64139;-83
2021/06/30 04:39:20;;;;;;;12.20;8.33;;;;;;;26.96;53.61;100602.17;128305;1087;64250;-83
2021/06/30 04:42:08;;;;;;;12.23;8.33;;;;;;;26.96;53.68;100602.17;128278;1085;64201;-83
2021/06/30 04:44:37;;;;;;;11.37;8.27;;;;;;;26.96;53.64;100604.88;128281;1087;64138;-82
2021/06/30 04:47:25;;;;;;;12.43;8.10;;;;;;;26.96;53.67;100603.00;128238;1085;64208;-82
2021/06/30 04:49:54;;;;;;;10.87;8.00;;;;;;;26.97;53.60;100609.30;128238;1087;64259;-83
2021/06/30 04:52:48;;;;;;;12.23;8.03;;;;;;;26.97;53.54;100612.00;128258;1084;64230;-82
2021/06/30 04:55:15;;;;;;;11.60;7.77;;;;;;;26.96;53.60;100611.13;128348;1087;64237;-83
2021/06/30 04:57:42;;;;;;;10.10;7.40;;;;;;;26.98;53.48;100610.97;128299;1086;64166;-84
2021/06/30 05:00:42;;;;;;;;;;;;;;;;;;;;;
2021/06/30 05:03:29;;;;;;;11.20;9.00;;;;;;;26.98;53.48;100622.68;128308;1087;64178;-84
2021/06/30 05:06:21;;;;;;;12.40;9.27;;;;;;;26.98;53.67;100619.09;128317;1086;65367;-84
2021/06/30 05:08:54;;;;;;;15.20;9.60;;;;;;;26.98;53.53;100617.27;128193;1086;64548;-84
2021/06/30 05:11:22;;;;;;;17.40;10.23;;;;;;;26.99;53.57;100623.52;127960;1087;64134;-83
2021/06/30 05:13:58;;;;;;;14.70;9.00;;;;;;;27.00;53.68;100622.52;128261;1085;64141;-84
2021/06/30 05:16:39;;;;;;;9.87;8.50;;;;;;;27.01;53.63;100624.23;128294;1087;64169;-84
2021/06/30 05:19:15;;;;;;;15.77;9.43;;;;;;;27.00;53.67;100623.36;128337;1087;64208;-83
2021/06/30 05:21:42;;;;;;;12.30;9.50;;;;;;;27.01;53.63;100633.20;128324;1086;64307;-83
2021/06/30 05:24:18;;;;;;;13.90;9.40;;;;;;;27.01;53.89;100629.65;128339;1087;64147;-84
2021/06/30 05:27:03;;;;;;;15.07;9.17;;;;;;;27.01;53.61;100621.52;128345;1087;64144;-84
2021/06/30 05:29:41;;;;;;;13.03;9.27;;;;;;;27.02;53.63;100623.20;128291;1085;64182;-84
2021/06/30 05:32:16;;;;;;;14.10;10.30;;;;;;;27.03;53.56;100622.20;127943;1087;64188;-84
2021/06/30 05:34:45;;;;;;;16.40;10.73;;;;;;;27.03;53.37;100614.95;128329;1087;64147;-83
2021/06/30 05:37:41;;;;;;;;;;;;;;;;;;;;;
2021/06/30 05:40:49;;;;;;;16.10;10.90;;;;;;;27.05;53.66;100617.50;128281;1085;62953;-84
2021/06/30 05:43:24;;;;;;;15.87;10.10;;;;;;;27.06;53.56;100614.63;127828;1088;64138;-84
2021/06/30 05:45:53;;;;;;;14.50;11.13;;;;;;;27.07;53.47;100627.18;127825;1090;64149;-84
2021/06/30 05:48:36;;;;;;;;;;;;;;;;;;;;;
2021/06/30 05:51:23;;;;;;;16.97;10.27;;;;;;;27.08;53.64;100620.73;127873;1088;64135;-84
2021/06/30 05:53:49;;;;;;;13.43;11.20;;;;;;;27.09;53.75;100610.77;127590;1088;64378;-83
2021/06/30 05:56:27;;;;;;;13.67;11.60;;;;;;;27.11;53.63;100619.58;127573;1089;64298;-84
2021/06/30 05:59:14;;;;;;;14.53;10.93;;;;;;;27.12;53.47;100613.16;127588;1089;64144;-84
2021/06/30 06:01:41;;;;;;;13.20;11.33;;;;;;;27.13;53.72;100616.73;127825;1090;64138;-83
2021/06/30 06:04:10;;;;;;;15.50;10.87;;;;;;;27.16;53.94;100621.84;127837;1090;64447;-83
2021/06/30 06:06:50;;;;;;;16.03;10.43;;;;;;;27.19;53.85;100625.10;127732;1090;64259;-83
2021/06/30 06:09:16;;;;;;;15.50;10.53;;;;;;;27.22;53.96;100621.20;127762;1090;64089;-84
2021/06/30 06:11:57;;;;;;;15.17;10.63;;;;;;;27.26;53.89;100617.20;127840;1090;64277;-82
2021/06/30 06:14:29;;;;;;;15.90;11.10;;;;;;;27.30;53.98;100624.02;127841;1089;64141;-84
2021/06/30 06:17:20;;;;;;;17.27;10.23;;;;;;;27.34;53.90;100627.24;127878;1089;64099;-83
2021/06/30 06:20:21;;;;;;;;;;;;;;;;;;;;;
2021/06/30 06:22:58;;;;;;;14.00;10.80;;;;;;;27.37;53.69;100637.83;128209;1087;64188;-83
2021/06/30 06:25:34;;;;;;;13.73;10.73;;;;;;;27.38;53.74;100628.66;128291;1087;64317;-83
2021/06/30 06:28:10;;;;;;;14.60;11.20;;;;;;;27.39;53.69;100624.95;128350;1087;64176;-83
2021/06/30 06:30:48;;;;;;;16.70;11.00;;;;;;;27.39;53.55;100627.67;128346;1087;64176;-84
2021/06/30 06:33:35;;;;;;;15.13;11.33;;;;;;;27.38;53.53;100624.12;128323;1087;64144;-83
2021/06/30 06:36:05;;;;;;;17.77;11.23;;;;;;;27.38;53.40;100621.41;128162;1085;64555;-81
2021/06/30 06:38:35;;;;;;;13.93;10.57;;;;;;;27.38;53.58;100615.12;128223;1087;64134;-83
2021/06/30 06:41:12;;;;;;;14.77;11.30;;;;;;;27.37;53.50;100616.15;128180;1087;64219;-82
2021/06/30 06:43:48;;;;;;;12.23;10.87;;;;;;;27.36;53.48;100620.66;127875;1086;64207;-83
2021/06/30 06:46:17;;;;;;;12.93;10.77;;;;;;;27.36;53.26;100620.66;128217;1087;65100;-84
2021/06/30 06:49:01;;;;;;;15.67;11.33;;;;;;;27.35;53.36;100621.66;128285;1084;64102;-83
2021/06/30 06:51:29;;;;;;;14.53;11.03;;;;;;;27.33;53.40;100612.02;128234;1087;64135;-83
2021/06/30 06:54:07;;;;;;;14.77;10.97;;;;;;;27.32;53.31;100605.72;128313;1087;64118;-82
2021/06/30 06:56:33;;;;;;;14.20;10.87;;;;;;;27.32;53.54;100604.88;128259;1085;64237;-83
2021/06/30 06:59:09;;;;;;;13.43;10.60;;;;;;;27.31;53.38;100606.72;128261;1087;64337;-83
2021/06/30 07:01:37;;;;;;;13.73;10.53;;;;;;;27.30;53.48;100599.63;128135;1085;64140;-82
2021/06/30 07:04:24;;;;;;;14.63;11.23;;;;;;;27.29;53.38;100591.63;128214;1087;64140;-82
2021/06/30 07:06:58;;;;;;;15.47;10.70;;;;;;;27.29;53.43;100597.05;128221;1085;64175;-84
2021/06/30 07:09:55;;;;;;;12.70;10.67;;;;;;;27.28;53.48;100596.20;128312;1086;64189;-83
2021/06/30 07:12:22;;;;;;;16.43;11.47;;;;;;;27.29;53.49;100597.91;128326;1085;64548;-83
2021/06/30 07:14:57;;;;;;;13.60;11.57;;;;;;;27.29;53.43;100591.63;128208;1086;64137;-84
2021/06/30 07:17:24;;;;;;;15.97;12.07;;;;;;;27.28;53.50;100595.37;128273;1086;64298;-84
2021/06/30 07:19:57;;;;;;;15.43;11.80;;;;;;;27.28;53.58;100593.50;128315;1087;64279;-84
2021/06/30 07:22:26;;;;;;;13.50;11.17;;;;;;;27.28;53.53;100592.66;128254;1086;63942;-84
2021/06/30 07:25:24;;;;;;;15.50;11.27;;;;;;;27.27;53.54;100586.36;128342;1086;64208;-83
2021/06/30 07:27:51;;;;;;;19.28;11.55;;;;;;;27.26;53.61;100590.94;128143;1087;64198;-83
2021/06/30 07:30:29;;;;;;;15.90;11.50;;;;;;;27.26;53.51;100590.11;128199;1085;64147;-84
2021/06/30 07:33:02;;;;;;;15.57;11.87;;;;;;;27.26;53.80;100590.94;128176;1087;64160;-84
2021/06/30 07:35:33;;;;;;;14.83;11.33;;;;;;;27.26;53.38;100590.11;128212;1087;64169;-83
2021/06/30 07:37:59;;;;;;;13.47;11.27;;;;;;;27.26;53.54;100596.36;128234;1087;64208;-83
2021/06/30 07:40:27;;;;;;;14.00;11.43;;;;;;;27.26;53.49;100590.11;128193;1086;64239;-83
2021/06/30 07:43:16;;;;;;;14.17;11.50;;;;;;;27.25;53.49;100585.69;128345;1086;64134;-84
2021/06/30 07:46:07;;;;;;;27.57;13.07;;;;;;;27.26;53.49;100590.11;128361;1087;63975;-84
2021/06/30 07:48:35;;;;;;;21.23;12.03;;;;;;;27.25;53.54;100589.23;128233;1085;64115;-84
2021/06/30 07:51:04;;;;;;;30.43;12.07;;;;;;;27.25;53.60;100586.52;128288;1086;64255;-84
2021/06/30 07:53:31;;;;;;;23.57;12.73;;;;;;;27.25;53.54;100591.11;128372;1086;64108;-85
2021/06/30 07:56:08;;;;;;;23.50;12.70;;;;;;;27.25;53.61;100596.52;128359;1087;64234;-84
2021/06/30 07:58:34;;;;;;;22.53;11.40;;;;;;;27.25;53.44;100593.81;128353;1085;64143;-84
2021/06/30 08:01:12;;;;;;;23.90;12.37;;;;;;;27.25;53.67;100596.52;128269;1087;64182;-83
2021/06/30 08:04:06;;;;;;;20.30;11.23;;;;;;;27.24;53.52;100592.94;127901;1087;64110;-83
2021/06/30 08:07:02;;;;;;;18.83;12.00;;;;;;;27.23;53.65;100584.97;127849;1087;64129;-83
2021/06/30 08:09:44;;;;;;;15.80;11.07;;;;;;;27.23;53.55;100590.39;127875;1087;64137;-84
2021/06/30 08:12:14;;;;;;;14.83;12.33;;;;;;;27.23;53.61;100591.27;127672;1087;64496;-81
2021/06/30 08:14:59;;;;;;;22.47;12.27;;;;;;;27.24;53.68;100586.69;127765;1085;64227;-82
2021/06/30 08:17:44;;;;;;;17.00;11.90;;;;;;;27.26;53.76;100587.39;127854;1087;64130;-83
2021/06/30 08:20:12;;;;;;;17.53;11.67;;;;;;;27.29;54.12;100583.49;127865;1087;64365;-83
2021/06/30 08:22:41;;;;;;;17.93;11.20;;;;;;;27.31;54.09;100581.49;127825;1087;64131;-84
2021/06/30 08:25:22;;;;;;;;;;;;;;;;;;;;;
2021/06/30 08:27:59;;;;;;;16.23;12.07;;;;;;;27.38;53.85;100580.75;127809;1087;63952;-83
2021/06/30 08:30:31;;;;;;;19.10;11.97;;;;;;;27.40;54.00;100575.17;127696;1087;64425;-82
2021/06/30 08:33:00;;;;;;;16.67;11.80;;;;;;;27.41;53.77;100575.00;127729;1090;64178;-82
2021/06/30 08:35:27;;;;;;;15.47;11.87;;;;;;;27.42;53.93;100579.42;127745;1087;64287;-82
2021/06/30 08:37:56;;;;;;;14.43;11.97;;;;;;;27.43;53.75;100572.13;127646;1087;64281;-83
2021/06/30 08:40:24;;;;;;;14.30;11.93;;;;;;;27.45;54.01;100569.26;127688;1087;64103;-84
2021/06/30 08:42:54;;;;;;;15.47;11.00;;;;;;;27.44;53.86;100568.42;127627;1087;64249;-82
2021/06/30 08:45:21;;;;;;;13.07;11.03;;;;;;;27.44;53.93;100565.71;128074;1087;64285;-81
2021/06/30 08:47:47;;;;;;;14.67;10.80;;;;;;;27.44;53.52;100554.86;128015;1085;64173;-81
2021/06/30 08:50:17;;;;;;;12.07;10.33;;;;;;;27.44;53.52;100563.00;128124;1085;64163;-82
2021/06/30 08:52:46;;;;;;;13.70;10.80;;;;;;;27.42;53.61;100562.29;128157;1087;64183;-83
2021/06/30 08:55:13;;;;;;;12.27;10.97;;;;;;;27.41;53.46;100553.32;128330;1087;64157;-81
2021/06/30 08:58:08;;;;;;;12.97;10.80;;;;;;;27.42;53.47;100551.45;128149;1087;64131;-83
2021/06/30 09:00:35;;;;;;;12.33;10.87;;;;;;;27.41;53.71;100550.61;128157;1086;64149;-83
2021/06/30 09:03:02;;;;;;;11.93;10.67;;;;;;;27.40;53.50;100554.32;128094;1085;64211;-83
2021/06/30 09:05:49;;;;;;;12.63;10.57;;;;;;;27.40;53.68;100554.32;128101;1087;64000;-83
2021/06/30 09:08:15;;;;;;;12.07;10.23;;;;;;;27.40;53.63;100561.61;128059;1085;64106;-81
2021/06/30 09:10:43;;;;;;;11.90;10.33;;;;;;;27.39;53.67;100557.20;128012;1084;64717;-81
2021/06/30 09:13:23;;;;;;;13.60;10.63;;;;;;;27.39;53.54;100551.77;128060;1086;64211;-81
2021/06/30 09:16:07;;;;;;;14.93;11.10;;;;;;;27.38;53.49;100541.93;128063;1086;64090;-83
2021/06/30 09:18:39;;;;;;;11.97;10.80;;;;;;;27.37;53.65;100549.22;128188;1086;64217;-83
2021/06/30 09:21:32;;;;;;;12.00;10.40;;;;;;;27.38;53.53;100550.06;128286;1087;64522;-84
2021/06/30 09:24:11;;;;;;;11.30;10.20;;;;;;;27.38;53.53;100552.77;128396;1084;64172;-84
2021/06/30 09:26:48;;;;;;;14.23;10.80;;;;;;;27.37;53.38;100545.67;128317;1086;64284;-83
2021/06/30 09:29:21;;;;;;;14.40;11.30;;;;;;;27.36;53.50;100549.35;128196;1087;64253;-83
2021/06/30 09:31:50;;;;;;;11.00;9.87;;;;;;;27.35;53.34;100545.77;128227;1087;64256;-83
2021/06/30 09:34:45;;;;;;;;;;;;;;;;;;;;;
2021/06/30 09:37:12;;;;;;;12.57;9.73;;;;;;;27.34;53.39;100548.64;128207;1087;64226;-83
2021/06/30 09:39:55;;;;;;;11.30;10.20;;;;;;;27.33;53.46;100561.36;128197;1087;64118;-83
2021/06/30 09:42:32;;;;;;;12.03;10.83;;;;;;;27.33;53.43;100547.81;128296;1085;64096;-83
2021/06/30 09:45:38;;;;;;;11.40;10.30;;;;;;;27.32;53.30;100548.81;128185;1087;64178;-82
2021/06/30 09:48:04;;;;;;;12.37;9.63;;;;;;;27.32;53.27;100547.97;128209;1086;64253;-82
2021/06/30 09:50:38;;;;;;;10.87;9.87;;;;;;;27.33;53.32;100552.39;128144;1087;64134;-83
2021/06/30 09:53:06;;;;;;;11.05;9.80;;;;;;;27.32;53.37;100548.81;127856;1086;64137;-83
2021/06/30 09:55:53;;;;;;;11.67;9.53;;;;;;;27.32;53.21;100547.97;128384;1085;64102;-83
2021/06/30 09:58:40;;;;;;;13.13;10.40;;;;;;;27.31;53.21;100549.81;128353;1086;64121;-83
2021/06/30 10:01:32;;;;;;;11.10;9.90;;;;;;;27.32;53.20;100542.55;128385;1086;64137;-83
2021/06/30 10:04:30;;;;;;;12.13;8.87;;;;;;;27.30;52.85;100544.55;128365;1087;63948;-83
2021/06/30 10:08:06;;;;;;;12.00;9.37;;;;;;;27.30;53.11;100531.00;128381;1087;64320;-83
2021/06/30 10:10:39;;;;;;;10.13;8.70;;;;;;;27.29;53.06;100537.42;128065;1087;64198;-84
2021/06/30 10:13:39;;;;;;;11.77;9.87;;;;;;;27.28;53.09;100531.16;128377;1087;64367;-83
2021/06/30 10:16:20;;;;;;;10.67;9.37;;;;;;;27.28;52.83;100533.03;128361;1087;64102;-84
2021/06/30 10:19:03;;;;;;;11.00;9.30;;;;;;;27.28;52.93;100524.91;128373;1087;64211;-83
2021/06/30 10:21:37;;;;;;;9.87;8.87;;;;;;;27.28;53.01;100522.19;128347;1087;64193;-83
2021/06/30 10:24:28;;;;;;;10.17;9.07;;;;;;;27.26;53.05;100523.19;128365;1087;64218;-84
2021/06/30 10:27:02;;;;;;;9.83;8.83;;;;;;;27.26;52.94;100522.36;128342;1087;64002;-83
2021/06/30 10:29:56;;;;;;;;;;;;;;;;;;;;;
2021/06/30 10:32:32;;;;;;;10.20;9.13;;;;;;;27.24;52.99;100508.94;128192;1086;64120;-83
2021/06/30 10:35:04;;;;;;;10.80;9.23;;;;;;;27.24;53.13;100511.65;128148;1087;64133;-83
2021/06/30 10:37:41;;;;;;;11.13;10.00;;;;;;;27.25;53.13;100510.65;128202;1085;64192;-83
2021/06/30 10:40:12;;;;;;;11.40;10.27;;;;;;;27.25;52.98;100498.97;128189;1085;64270;-83
2021/06/30 10:42:48;;;;;;;11.80;10.57;;;;;;;27.25;53.05;100498.97;128254;1087;64138;-83
2021/06/30 10:45:28;;;;;;;12.40;10.13;;;;;;;27.25;53.15;100493.55;128194;1086;64194;-83
2021/06/30 10:48:15;;;;;;;12.63;10.70;;;;;;;27.26;52.90;100497.97;128360;1087;64121;-84
2021/06/30 10:50:46;;;;;;;13.07;10.57;;;;;;;27.25;52.98;100488.13;128371;1086;64099;-83
2021/06/30 10:53:56;;;;;;;11.37;10.17;;;;;;;27.25;52.94;100488.97;128297;1087;64141;-84
2021/06/30 10:56:43;;;;;;;12.70;11.40;;;;;;;27.25;52.90;100482.70;128340;1087;64137;-83
2021/06/30 10:59:31;;;;;;;14.77;12.40;;;;;;;27.25;52.94;100480.00;128328;1087;64149;-84
2021/06/30 11:02:47;;;;;;;;;;;;;;;;;;;;;
2021/06/30 11:05:24;;;;;;;12.73;11.43;;;;;;;27.24;52.94;100479.13;127904;1087;64166;-83
2021/06/30 11:08:01;;;;;;;13.10;11.63;;;;;;;27.24;52.84;100479.13;127836;1088;64240;-83
2021/06/30 11:10:39;;;;;;;12.73;11.50;;;;;;;27.24;53.00;100468.29;127907;1087;64134;-84
2021/06/30 11:13:45;;;;;;;15.17;12.00;;;;;;;27.24;52.78;100468.29;127887;1087;62145;-84
2021/06/30 11:16:11;;;;;;;13.80;11.70;;;;;;;27.24;53.05;100467.45;127798;1087;64166;-84
2021/06/30 11:19:21;;;;;;;13.50;12.10;;;;;;;27.23;52.96;100463.91;127884;1090;64166;-83
2021/06/30 11:22:27;;;;;;;12.37;10.87;;;;;;;27.23;52.89;100458.48;127846;1090;64469;-85
2021/06/30 11:25:23;;;;;;;13.27;11.97;;;;;;;27.22;53.05;100464.91;127864;1090;64253;-83
2021/06/30 11:28:39;;;;;;;13.50;12.10;;;;;;;27.23;52.87;100458.48;127893;1088;63990;-83
2021/06/30 11:31:51;;;;;;;12.27;10.70;;;;;;;27.22;52.58;100456.78;127890;1087;64288;-83
2021/06/30 11:34:31;;;;;;;13.27;11.87;;;;;;;27.23;52.92;100453.06;127899;1087;64224;-83
2021/06/30 11:37:42;;;;;;;;;;;;;;;;;;;;;
2021/06/30 11:40:26;;;;;;;12.83;11.53;;;;;;;27.23;52.94;100457.61;127689;1090;64198;-83
2021/06/30 11:43:28;;;;;;;12.50;11.20;;;;;;;27.23;52.73;100454.91;127689;1087;64227;-83
2021/06/30 11:45:56;;;;;;;12.63;11.30;;;;;;;27.22;52.74;100454.06;127788;1087;64117;-82
2021/06/30 11:48:38;;;;;;;11.73;10.53;;;;;;;27.23;52.73;100454.91;127818;1087;64341;-82
2021/06/30 11:51:11;;;;;;;11.93;10.73;;;;;;;27.23;52.77;100450.36;127824;1087;64259;-82
2021/06/30 11:54:04;;;;;;;12.17;10.97;;;;;;;27.24;52.77;100451.20;127815;1087;64173;-83
2021/06/30 11:56:55;;;;;;;11.23;10.03;;;;;;;27.24;52.67;100451.20;127855;1087;64211;-83
2021/06/30 11:59:43;;;;;;;12.20;9.80;;;;;;;27.24;52.74;100449.32;127927;1087;64134;-84
2021/06/30 12:02:20;;;;;;;11.90;10.60;;;;;;;27.25;52.62;100448.32;127862;1087;64310;-84
2021/06/30 12:05:18;;;;;;;13.37;12.03;;;;;;;27.24;52.61;100441.19;127711;1087;64143;-83
2021/06/30 12:08:27;;;;;;;17.60;14.65;;;;;;;27.25;52.51;100442.06;127898;1090;64320;-85
2021/06/30 12:10:53;;;;;;;;;;;;;;;27.24;52.59;100435.77;127926;1087;63948;-84
2021/06/30 12:13:42;;;;;;;19.80;17.73;;;;;;;27.24;52.77;100432.23;127908;1085;63982;-84
2021/06/30 12:16:57;;;;;;;;;;;;;;;;;;;;;
2021/06/30 12:20:07;;;;;;;17.23;14.90;;;;;;;27.24;52.48;100422.22;128383;1086;64108;-84
2021/06/30 12:23:02;;;;;;;15.07;13.50;;;;;;;27.25;52.32;100417.67;127903;1089;64384;-85
2021/06/30 12:25:51;;;;;;;13.80;12.50;;;;;;;27.26;52.28;100416.67;127895;1090;64144;-84
2021/06/30 12:29:08;;;;;;;14.00;12.50;;;;;;;27.26;52.61;100417.51;127891;1089;64140;-84
2021/06/30 12:31:35;;;;;;;13.90;12.47;;;;;;;27.28;52.61;100408.38;127619;1090;65187;-84
2021/06/30 12:34:19;;;;;;;13.83;12.43;;;;;;;27.27;52.67;100407.51;127558;1090;64198;-84
2021/06/30 12:36:48;;;;;;;13.47;11.80;;;;;;;27.28;52.55;100405.66;127684;1090;64066;-84
2021/06/30 12:39:37;;;;;;;;;;;;;;;;;;;;;
2021/06/30 12:42:22;;;;;;;13.47;12.07;;;;;;;27.29;52.51;100396.50;127701;1090;64322;-83
2021/06/30 12:45:28;;;;;;;;;;;;;;;;;;;;;
2021/06/30 12:48:26;;;;;;;12.93;11.63;;;;;;;27.30;52.55;100382.82;127709;1090;64091;-84
2021/06/30 12:51:13;;;;;;;13.23;11.87;;;;;;;27.30;52.66;100376.53;127735;1090;64294;-83
2021/06/30 12:53:52;;;;;;;13.50;11.13;;;;;;;27.31;52.44;100381.78;127709;1090;64176;-84
2021/06/30 12:56:50;;;;;;;12.65;11.35;;;;;;;27.32;52.39;100379.94;127728;1090;64146;-83
2021/06/30 12:59:46;;;;;;;;;;;;;;;;;;;;;
2021/06/30 13:02:35;;;;;;;12.47;11.23;;;;;;;27.33;52.40;100362.67;127715;1090;64126;-84
2021/06/30 13:05:49;;;;;;;12.77;11.40;;;;;;;27.32;52.40;100361.81;127691;1090;64249;-84
2021/06/30 13:08:50;;;;;;;12.30;11.03;;;;;;;27.33;52.42;100352.67;127760;1090;64169;-83
2021/06/30 13:11:52;;;;;;;12.05;10.50;;;;;;;27.34;52.63;100353.52;127298;1093;63929;-84